Vashon, Washington
Current Conditions -  °F | °C
As of 12:53 AM on Friday 24 Oct 2014 (Local Time) from KSEA Reporting Station
Light Rain Light Rain  
Wind Chill: 47°   Ceiling: 4500
Heat Index: 49°   Visibility: 10mi
Dew Point: 45°   Wind: 5mph
Humidity: 86%   Direction: 160°SSE
Pressure: 30.03"   Gusts: NA
Location:  47.45°N, 122.46°W
Report Text: KSEA 240753Z 16004KT 10SM -RA FEW037 BKN045 OVC060 09/07 A3003 RMK AO2 RAB40 SLP175 P0001 T00940072 401440083
Loading
Personal Weather Stations






























Interactive Weather Map
Tropical Storm Tracking
New forecast layout! Learn more

10-Day Weather Forecast

Advertisements
Track Severe Weather on mobile